sensor_id;sensor_type;location;lat;lon;timestamp;temperature;humidity
40123;DHT22;25832;45.490;4.912;2023-09-08T00:02:18;22.30;78.70
40123;DHT22;25832;45.490;4.912;2023-09-08T00:04:44;22.30;78.70
40123;DHT22;25832;45.490;4.912;2023-09-08T00:07:09;22.30;78.70
40123;DHT22;25832;45.490;4.912;2023-09-08T00:09:35;22.20;78.70
40123;DHT22;25832;45.490;4.912;2023-09-08T00:12:01;22.20;78.90
40123;DHT22;25832;45.490;4.912;2023-09-08T00:14:27;22.10;78.90
40123;DHT22;25832;45.490;4.912;2023-09-08T00:16:52;22.10;78.80
40123;DHT22;25832;45.490;4.912;2023-09-08T00:19:21;22.10;78.80
40123;DHT22;25832;45.490;4.912;2023-09-08T00:21:48;22.10;78.70
40123;DHT22;25832;45.490;4.912;2023-09-08T00:24:15;22.10;78.80
40123;DHT22;25832;45.490;4.912;2023-09-08T00:26:40;22.10;78.80
40123;DHT22;25832;45.490;4.912;2023-09-08T00:29:06;22.00;78.80
40123;DHT22;25832;45.490;4.912;2023-09-08T00:31:32;22.00;78.90
40123;DHT22;25832;45.490;4.912;2023-09-08T00:33:58;22.00;78.90
40123;DHT22;25832;45.490;4.912;2023-09-08T00:36:24;22.10;78.80
40123;DHT22;25832;45.490;4.912;2023-09-08T00:38:49;22.00;78.70
40123;DHT22;25832;45.490;4.912;2023-09-08T00:41:15;22.00;78.50
40123;DHT22;25832;45.490;4.912;2023-09-08T00:43:41;22.00;78.60
40123;DHT22;25832;45.490;4.912;2023-09-08T00:46:07;22.00;78.80
40123;DHT22;25832;45.490;4.912;2023-09-08T00:48:33;22.00;78.70
40123;DHT22;25832;45.490;4.912;2023-09-08T00:51:00;22.00;78.70
40123;DHT22;25832;45.490;4.912;2023-09-08T00:53:26;22.00;78.60
40123;DHT22;25832;45.490;4.912;2023-09-08T00:55:52;22.00;78.60
40123;DHT22;25832;45.490;4.912;2023-09-08T00:58:18;22.00;78.70
40123;DHT22;25832;45.490;4.912;2023-09-08T01:00:44;22.00;78.40
40123;DHT22;25832;45.490;4.912;2023-09-08T01:03:11;22.00;78.50
40123;DHT22;25832;45.490;4.912;2023-09-08T01:05:37;22.10;78.30
40123;DHT22;25832;45.490;4.912;2023-09-08T01:08:04;22.00;78.40
40123;DHT22;25832;45.490;4.912;2023-09-08T01:10:29;22.00;78.50
40123;DHT22;25832;45.490;4.912;2023-09-08T01:12:55;22.00;78.70
40123;DHT22;25832;45.490;4.912;2023-09-08T01:15:21;22.00;78.70
40123;DHT22;25832;45.490;4.912;2023-09-08T01:17:47;22.00;78.70
40123;DHT22;25832;45.490;4.912;2023-09-08T01:26:10;21.90;79.10
40123;DHT22;25832;45.490;4.912;2023-09-08T01:28:40;21.80;79.20
40123;DHT22;25832;45.490;4.912;2023-09-08T01:31:07;21.80;79.40
40123;DHT22;25832;45.490;4.912;2023-09-08T01:33:33;21.80;79.50
40123;DHT22;25832;45.490;4.912;2023-09-08T01:35:59;21.80;79.50
40123;DHT22;25832;45.490;4.912;2023-09-08T01:38:25;21.80;79.50
40123;DHT22;25832;45.490;4.912;2023-09-08T01:40:50;21.80;79.60
40123;DHT22;25832;45.490;4.912;2023-09-08T01:43:16;21.70;79.70
40123;DHT22;25832;45.490;4.912;2023-09-08T01:45:42;21.70;80.30
40123;DHT22;25832;45.490;4.912;2023-09-08T01:48:07;21.70;79.80
40123;DHT22;25832;45.490;4.912;2023-09-08T01:50:33;21.60;79.80
40123;DHT22;25832;45.490;4.912;2023-09-08T01:52:59;21.60;80.10
40123;DHT22;25832;45.490;4.912;2023-09-08T01:55:24;21.60;79.90
40123;DHT22;25832;45.490;4.912;2023-09-08T01:57:50;21.60;80.00
40123;DHT22;25832;45.490;4.912;2023-09-08T02:00:16;21.50;80.20
40123;DHT22;25832;45.490;4.912;2023-09-08T02:02:41;21.50;80.20
40123;DHT22;25832;45.490;4.912;2023-09-08T02:05:07;21.50;80.20
40123;DHT22;25832;45.490;4.912;2023-09-08T02:07:33;21.50;80.30
40123;DHT22;25832;45.490;4.912;2023-09-08T02:09:59;21.50;80.40
40123;DHT22;25832;45.490;4.912;2023-09-08T02:12:25;21.50;80.60
40123;DHT22;25832;45.490;4.912;2023-09-08T02:14:50;21.40;80.70
40123;DHT22;25832;45.490;4.912;2023-09-08T02:17:17;21.40;80.80
40123;DHT22;25832;45.490;4.912;2023-09-08T02:19:43;21.40;80.80
40123;DHT22;25832;45.490;4.912;2023-09-08T02:22:09;21.40;81.00
40123;DHT22;25832;45.490;4.912;2023-09-08T02:24:35;21.40;81.10
40123;DHT22;25832;45.490;4.912;2023-09-08T02:27:00;21.30;81.20
40123;DHT22;25832;45.490;4.912;2023-09-08T02:29:26;21.30;81.30
40123;DHT22;25832;45.490;4.912;2023-09-08T02:31:51;21.30;81.30
40123;DHT22;25832;45.490;4.912;2023-09-08T02:34:17;21.30;81.90
40123;DHT22;25832;45.490;4.912;2023-09-08T02:36:43;21.20;81.50
40123;DHT22;25832;45.490;4.912;2023-09-08T02:39:08;21.20;81.50
40123;DHT22;25832;45.490;4.912;2023-09-08T02:41:36;21.20;81.50
40123;DHT22;25832;45.490;4.912;2023-09-08T02:44:02;21.20;81.60
40123;DHT22;25832;45.490;4.912;2023-09-08T02:46:27;21.20;81.70
40123;DHT22;25832;45.490;4.912;2023-09-08T02:48:53;21.20;81.80
40123;DHT22;25832;45.490;4.912;2023-09-08T02:51:19;21.10;81.80
40123;DHT22;25832;45.490;4.912;2023-09-08T02:53:44;21.10;81.90
40123;DHT22;25832;45.490;4.912;2023-09-08T02:56:10;21.10;82.10
40123;DHT22;25832;45.490;4.912;2023-09-08T02:58:36;21.10;82.30
40123;DHT22;25832;45.490;4.912;2023-09-08T03:01:15;21.00;82.30
40123;DHT22;25832;45.490;4.912;2023-09-08T03:03:41;21.00;82.50
40123;DHT22;25832;45.490;4.912;2023-09-08T03:06:08;21.00;82.60
40123;DHT22;25832;45.490;4.912;2023-09-08T03:08:34;21.00;82.70
40123;DHT22;25832;45.490;4.912;2023-09-08T03:11:00;21.00;82.70
40123;DHT22;25832;45.490;4.912;2023-09-08T03:13:25;20.90;82.80
40123;DHT22;25832;45.490;4.912;2023-09-08T03:15:55;20.90;82.90
40123;DHT22;25832;45.490;4.912;2023-09-08T03:18:21;20.90;83.00
40123;DHT22;25832;45.490;4.912;2023-09-08T03:20:50;20.90;83.00
40123;DHT22;25832;45.490;4.912;2023-09-08T03:23:16;20.80;83.00
40123;DHT22;25832;45.490;4.912;2023-09-08T03:25:43;20.80;83.20
40123;DHT22;25832;45.490;4.912;2023-09-08T03:28:08;20.80;83.20
40123;DHT22;25832;45.490;4.912;2023-09-08T03:30:34;20.80;83.40
40123;DHT22;25832;45.490;4.912;2023-09-08T03:33:00;20.70;83.50
40123;DHT22;25832;45.490;4.912;2023-09-08T03:35:26;20.70;83.70
40123;DHT22;25832;45.490;4.912;2023-09-08T03:37:51;20.70;84.00
40123;DHT22;25832;45.490;4.912;2023-09-08T03:40:17;20.60;84.00
40123;DHT22;25832;45.490;4.912;2023-09-08T03:42:42;20.50;84.20
40123;DHT22;25832;45.490;4.912;2023-09-08T03:45:08;20.50;84.50
40123;DHT22;25832;45.490;4.912;2023-09-08T03:47:35;20.50;84.50
40123;DHT22;25832;45.490;4.912;2023-09-08T03:50:00;20.50;84.80
40123;DHT22;25832;45.490;4.912;2023-09-08T03:52:26;20.40;84.80
40123;DHT22;25832;45.490;4.912;2023-09-08T03:54:52;20.40;84.80
40123;DHT22;25832;45.490;4.912;2023-09-08T03:57:17;20.40;85.10
40123;DHT22;25832;45.490;4.912;2023-09-08T03:59:43;20.40;85.10
40123;DHT22;25832;45.490;4.912;2023-09-08T04:02:09;20.40;85.10
40123;DHT22;25832;45.490;4.912;2023-09-08T04:04:34;20.30;85.10
40123;DHT22;25832;45.490;4.912;2023-09-08T04:07:00;20.30;85.20
40123;DHT22;25832;45.490;4.912;2023-09-08T04:09:26;20.30;85.20
40123;DHT22;25832;45.490;4.912;2023-09-08T04:11:53;20.30;85.30
40123;DHT22;25832;45.490;4.912;2023-09-08T04:14:20;20.30;85.30
40123;DHT22;25832;45.490;4.912;2023-09-08T04:16:46;20.30;85.50
40123;DHT22;25832;45.490;4.912;2023-09-08T04:19:12;20.20;85.40
40123;DHT22;25832;45.490;4.912;2023-09-08T04:21:37;20.20;85.60
40123;DHT22;25832;45.490;4.912;2023-09-08T04:24:04;20.20;85.80
40123;DHT22;25832;45.490;4.912;2023-09-08T04:26:30;20.20;85.70
40123;DHT22;25832;45.490;4.912;2023-09-08T04:28:56;20.20;85.80
40123;DHT22;25832;45.490;4.912;2023-09-08T04:31:22;20.10;85.90
40123;DHT22;25832;45.490;4.912;2023-09-08T04:33:47;20.10;85.90
40123;DHT22;25832;45.490;4.912;2023-09-08T04:36:13;20.10;85.70
40123;DHT22;25832;45.490;4.912;2023-09-08T04:38:39;20.10;85.80
40123;DHT22;25832;45.490;4.912;2023-09-08T04:41:07;20.10;85.90
40123;DHT22;25832;45.490;4.912;2023-09-08T04:43:32;20.10;86.00
40123;DHT22;25832;45.490;4.912;2023-09-08T04:45:58;20.10;86.10
40123;DHT22;25832;45.490;4.912;2023-09-08T04:48:24;20.10;86.20
40123;DHT22;25832;45.490;4.912;2023-09-08T04:50:49;20.10;86.30
40123;DHT22;25832;45.490;4.912;2023-09-08T04:53:16;20.10;86.10
40123;DHT22;25832;45.490;4.912;2023-09-08T04:55:43;20.10;86.30
40123;DHT22;25832;45.490;4.912;2023-09-08T04:58:08;20.10;86.30
40123;DHT22;25832;45.490;4.912;2023-09-08T05:00:34;20.00;86.60
40123;DHT22;25832;45.490;4.912;2023-09-08T05:03:00;19.90;86.70
40123;DHT22;25832;45.490;4.912;2023-09-08T05:05:25;19.90;86.90
40123;DHT22;25832;45.490;4.912;2023-09-08T05:07:51;19.80;87.10
40123;DHT22;25832;45.490;4.912;2023-09-08T05:10:22;19.80;87.20
40123;DHT22;25832;45.490;4.912;2023-09-08T05:12:47;19.80;87.20
40123;DHT22;25832;45.490;4.912;2023-09-08T05:15:13;19.70;87.40
40123;DHT22;25832;45.490;4.912;2023-09-08T05:17:41;19.60;87.60
40123;DHT22;25832;45.490;4.912;2023-09-08T05:20:07;19.60;87.60
40123;DHT22;25832;45.490;4.912;2023-09-08T05:22:32;19.50;87.80
40123;DHT22;25832;45.490;4.912;2023-09-08T05:24:58;19.50;88.10
40123;DHT22;25832;45.490;4.912;2023-09-08T05:27:24;19.50;88.10
40123;DHT22;25832;45.490;4.912;2023-09-08T05:29:50;19.50;88.20
40123;DHT22;25832;45.490;4.912;2023-09-08T05:32:15;19.50;88.30
40123;DHT22;25832;45.490;4.912;2023-09-08T05:34:41;19.50;88.50
40123;DHT22;25832;45.490;4.912;2023-09-08T05:37:07;19.60;88.20
40123;DHT22;25832;45.490;4.912;2023-09-08T05:39:34;19.80;88.00
40123;DHT22;25832;45.490;4.912;2023-09-08T05:41:59;20.00;87.70
40123;DHT22;25832;45.490;4.912;2023-09-08T05:44:25;20.10;87.20
40123;DHT22;25832;45.490;4.912;2023-09-08T05:46:50;20.20;87.20
40123;DHT22;25832;45.490;4.912;2023-09-08T05:49:16;20.30;87.20
40123;DHT22;25832;45.490;4.912;2023-09-08T05:51:43;20.40;87.00
40123;DHT22;25832;45.490;4.912;2023-09-08T05:54:09;20.40;86.60
40123;DHT22;25832;45.490;4.912;2023-09-08T05:56:37;20.50;86.60
40123;DHT22;25832;45.490;4.912;2023-09-08T05:59:02;20.50;86.60
40123;DHT22;25832;45.490;4.912;2023-09-08T06:01:30;20.60;86.80
40123;DHT22;25832;45.490;4.912;2023-09-08T06:03:56;20.50;87.50
40123;DHT22;25832;45.490;4.912;2023-09-08T06:06:22;20.50;87.30
40123;DHT22;25832;45.490;4.912;2023-09-08T06:08:48;20.50;87.50
40123;DHT22;25832;45.490;4.912;2023-09-08T06:11:14;20.50;87.70
40123;DHT22;25832;45.490;4.912;2023-09-08T06:13:40;20.60;87.70
40123;DHT22;25832;45.490;4.912;2023-09-08T06:16:05;20.70;87.70
40123;DHT22;25832;45.490;4.912;2023-09-08T06:18:31;20.70;87.50
40123;DHT22;25832;45.490;4.912;2023-09-08T06:20:57;20.90;87.40
40123;DHT22;25832;45.490;4.912;2023-09-08T06:23:23;20.90;87.30
40123;DHT22;25832;45.490;4.912;2023-09-08T06:25:49;21.00;87.30
40123;DHT22;25832;45.490;4.912;2023-09-08T06:28:15;21.10;87.90
40123;DHT22;25832;45.490;4.912;2023-09-08T06:30:41;21.30;86.10
40123;DHT22;25832;45.490;4.912;2023-09-08T06:33:10;21.40;86.10
40123;DHT22;25832;45.490;4.912;2023-09-08T06:35:35;21.50;86.20
40123;DHT22;25832;45.490;4.912;2023-09-08T06:38:01;21.60;87.00
40123;DHT22;25832;45.490;4.912;2023-09-08T06:40:29;21.80;85.60
40123;DHT22;25832;45.490;4.912;2023-09-08T06:42:55;21.80;85.30
40123;DHT22;25832;45.490;4.912;2023-09-08T06:45:22;21.90;84.10
40123;DHT22;25832;45.490;4.912;2023-09-08T06:47:48;21.90;85.60
40123;DHT22;25832;45.490;4.912;2023-09-08T06:50:15;21.90;84.20
40123;DHT22;25832;45.490;4.912;2023-09-08T06:52:41;22.00;84.30
40123;DHT22;25832;45.490;4.912;2023-09-08T06:55:07;22.20;84.20
40123;DHT22;25832;45.490;4.912;2023-09-08T06:57:33;22.30;84.10
40123;DHT22;25832;45.490;4.912;2023-09-08T06:59:59;22.50;83.80
40123;DHT22;25832;45.490;4.912;2023-09-08T07:02:24;22.70;83.00
40123;DHT22;25832;45.490;4.912;2023-09-08T07:04:50;22.80;83.00
40123;DHT22;25832;45.490;4.912;2023-09-08T07:07:16;23.10;83.40
40123;DHT22;25832;45.490;4.912;2023-09-08T07:09:43;23.40;82.30
40123;DHT22;25832;45.490;4.912;2023-09-08T07:12:09;23.70;81.60
40123;DHT22;25832;45.490;4.912;2023-09-08T07:14:34;23.80;80.50
40123;DHT22;25832;45.490;4.912;2023-09-08T07:17:00;24.00;81.50
40123;DHT22;25832;45.490;4.912;2023-09-08T07:19:26;24.10;80.30
40123;DHT22;25832;45.490;4.912;2023-09-08T07:21:52;24.20;80.70
40123;DHT22;25832;45.490;4.912;2023-09-08T07:24:18;24.50;80.50
40123;DHT22;25832;45.490;4.912;2023-09-08T07:26:44;24.60;79.00
40123;DHT22;25832;45.490;4.912;2023-09-08T07:29:09;24.70;79.60
40123;DHT22;25832;45.490;4.912;2023-09-08T07:31:35;24.80;80.20
40123;DHT22;25832;45.490;4.912;2023-09-08T07:34:01;25.00;79.00
40123;DHT22;25832;45.490;4.912;2023-09-08T07:36:27;25.20;78.00
40123;DHT22;25832;45.490;4.912;2023-09-08T07:38:52;25.30;77.30
40123;DHT22;25832;45.490;4.912;2023-09-08T07:41:18;25.40;76.80
40123;DHT22;25832;45.490;4.912;2023-09-08T07:43:44;25.50;76.90
40123;DHT22;25832;45.490;4.912;2023-09-08T07:46:11;25.60;76.20
40123;DHT22;25832;45.490;4.912;2023-09-08T07:48:36;25.70;77.10
40123;DHT22;25832;45.490;4.912;2023-09-08T07:51:02;25.80;77.30
40123;DHT22;25832;45.490;4.912;2023-09-08T07:53:28;25.90;75.80
40123;DHT22;25832;45.490;4.912;2023-09-08T07:55:53;26.00;75.80
40123;DHT22;25832;45.490;4.912;2023-09-08T07:58:19;26.00;76.80
40123;DHT22;25832;45.490;4.912;2023-09-08T08:00:45;26.10;76.20
40123;DHT22;25832;45.490;4.912;2023-09-08T08:03:10;26.20;75.50
40123;DHT22;25832;45.490;4.912;2023-09-08T08:05:36;26.20;74.20
40123;DHT22;25832;45.490;4.912;2023-09-08T08:08:02;26.30;74.80
40123;DHT22;25832;45.490;4.912;2023-09-08T08:10:28;26.30;74.00
40123;DHT22;25832;45.490;4.912;2023-09-08T08:12:53;26.30;74.20
40123;DHT22;25832;45.490;4.912;2023-09-08T08:15:20;26.30;75.00
40123;DHT22;25832;45.490;4.912;2023-09-08T08:17:49;26.20;74.50
40123;DHT22;25832;45.490;4.912;2023-09-08T08:20:14;26.20;74.70
40123;DHT22;25832;45.490;4.912;2023-09-08T08:22:44;26.30;74.60
40123;DHT22;25832;45.490;4.912;2023-09-08T08:25:13;26.30;74.60
40123;DHT22;25832;45.490;4.912;2023-09-08T08:27:39;26.30;74.80
40123;DHT22;25832;45.490;4.912;2023-09-08T08:30:06;26.40;75.00
40123;DHT22;25832;45.490;4.912;2023-09-08T08:32:33;26.40;74.80
40123;DHT22;25832;45.490;4.912;2023-09-08T08:34:59;26.50;75.50
40123;DHT22;25832;45.490;4.912;2023-09-08T08:37:25;26.60;75.70
40123;DHT22;25832;45.490;4.912;2023-09-08T08:39:51;26.70;74.80
40123;DHT22;25832;45.490;4.912;2023-09-08T08:42:16;26.90;75.80
40123;DHT22;25832;45.490;4.912;2023-09-08T08:44:42;27.00;73.60
40123;DHT22;25832;45.490;4.912;2023-09-08T08:47:10;27.00;74.10
40123;DHT22;25832;45.490;4.912;2023-09-08T08:49:36;27.00;73.10
40123;DHT22;25832;45.490;4.912;2023-09-08T08:52:04;27.00;73.20
40123;DHT22;25832;45.490;4.912;2023-09-08T08:54:38;27.10;73.00
40123;DHT22;25832;45.490;4.912;2023-09-08T08:57:05;27.00;72.80
40123;DHT22;25832;45.490;4.912;2023-09-08T08:59:31;26.90;73.40
40123;DHT22;25832;45.490;4.912;2023-09-08T09:01:58;26.90;72.40
40123;DHT22;25832;45.490;4.912;2023-09-08T09:04:25;26.90;73.20
40123;DHT22;25832;45.490;4.912;2023-09-08T09:06:53;27.00;73.30
40123;DHT22;25832;45.490;4.912;2023-09-08T09:09:20;27.20;73.70
40123;DHT22;25832;45.490;4.912;2023-09-08T09:11:45;27.30;72.60
40123;DHT22;25832;45.490;4.912;2023-09-08T09:14:11;27.50;73.70
40123;DHT22;25832;45.490;4.912;2023-09-08T09:16:41;27.70;73.10
40123;DHT22;25832;45.490;4.912;2023-09-08T09:19:07;27.80;72.60
40123;DHT22;25832;45.490;4.912;2023-09-08T09:21:43;27.90;73.10
40123;DHT22;25832;45.490;4.912;2023-09-08T09:24:17;28.10;72.60
40123;DHT22;25832;45.490;4.912;2023-09-08T09:26:43;28.20;73.50
40123;DHT22;25832;45.490;4.912;2023-09-08T09:29:12;28.30;72.40
40123;DHT22;25832;45.490;4.912;2023-09-08T09:31:57;28.30;73.60
40123;DHT22;25832;45.490;4.912;2023-09-08T09:34:23;28.40;71.70
40123;DHT22;25832;45.490;4.912;2023-09-08T09:36:52;28.50;72.00
40123;DHT22;25832;45.490;4.912;2023-09-08T09:39:22;28.50;72.30
40123;DHT22;25832;45.490;4.912;2023-09-08T09:41:52;28.40;73.30
40123;DHT22;25832;45.490;4.912;2023-09-08T09:44:19;28.40;73.80
40123;DHT22;25832;45.490;4.912;2023-09-08T09:46:48;28.50;72.30
40123;DHT22;25832;45.490;4.912;2023-09-08T09:49:15;28.60;72.40
40123;DHT22;25832;45.490;4.912;2023-09-08T09:51:44;28.60;71.50
40123;DHT22;25832;45.490;4.912;2023-09-08T09:54:11;28.80;72.00
40123;DHT22;25832;45.490;4.912;2023-09-08T09:56:38;28.90;71.90
40123;DHT22;25832;45.490;4.912;2023-09-08T09:59:06;28.90;71.40
40123;DHT22;25832;45.490;4.912;2023-09-08T10:01:33;29.10;70.30
40123;DHT22;25832;45.490;4.912;2023-09-08T10:04:01;29.20;70.20
40123;DHT22;25832;45.490;4.912;2023-09-08T10:06:31;29.20;69.10
40123;DHT22;25832;45.490;4.912;2023-09-08T10:09:02;29.20;70.60
40123;DHT22;25832;45.490;4.912;2023-09-08T10:11:55;29.30;69.80
40123;DHT22;25832;45.490;4.912;2023-09-08T10:14:21;29.40;69.80
40123;DHT22;25832;45.490;4.912;2023-09-08T10:16:50;29.50;69.60
40123;DHT22;25832;45.490;4.912;2023-09-08T10:19:18;29.50;69.30
40123;DHT22;25832;45.490;4.912;2023-09-08T10:21:48;29.60;69.60
40123;DHT22;25832;45.490;4.912;2023-09-08T10:24:22;29.70;69.70
40123;DHT22;25832;45.490;4.912;2023-09-08T10:27:10;29.80;69.20
40123;DHT22;25832;45.490;4.912;2023-09-08T10:29:37;29.90;69.60
40123;DHT22;25832;45.490;4.912;2023-09-08T10:32:04;30.00;69.90
40123;DHT22;25832;45.490;4.912;2023-09-08T10:34:31;30.10;69.00
40123;DHT22;25832;45.490;4.912;2023-09-08T10:36:58;30.20;69.30
40123;DHT22;25832;45.490;4.912;2023-09-08T10:39:33;30.20;69.00
40123;DHT22;25832;45.490;4.912;2023-09-08T10:42:20;30.30;69.30
40123;DHT22;25832;45.490;4.912;2023-09-08T10:47:25;30.40;69.60
40123;DHT22;25832;45.490;4.912;2023-09-08T10:49:52;30.40;69.60
40123;DHT22;25832;45.490;4.912;2023-09-08T10:52:24;30.30;68.60
40123;DHT22;25832;45.490;4.912;2023-09-08T10:54:54;30.40;68.40
40123;DHT22;25832;45.490;4.912;2023-09-08T10:57:23;30.50;69.20
40123;DHT22;25832;45.490;4.912;2023-09-08T11:00:03;30.60;68.50
40123;DHT22;25832;45.490;4.912;2023-09-08T11:02:49;30.70;68.40
40123;DHT22;25832;45.490;4.912;2023-09-08T11:05:19;30.70;68.40
40123;DHT22;25832;45.490;4.912;2023-09-08T11:07:48;30.80;68.00
40123;DHT22;25832;45.490;4.912;2023-09-08T11:10:18;30.70;67.80
40123;DHT22;25832;45.490;4.912;2023-09-08T11:12:43;30.70;67.30
40123;DHT22;25832;45.490;4.912;2023-09-08T11:15:09;30.60;67.70
40123;DHT22;25832;45.490;4.912;2023-09-08T11:17:37;30.70;68.30
40123;DHT22;25832;45.490;4.912;2023-09-08T11:20:08;30.80;67.60
40123;DHT22;25832;45.490;4.912;2023-09-08T11:22:36;30.90;67.30
40123;DHT22;25832;45.490;4.912;2023-09-08T11:25:02;30.90;67.40
40123;DHT22;25832;45.490;4.912;2023-09-08T11:27:31;30.90;67.20
40123;DHT22;25832;45.490;4.912;2023-09-08T11:29:58;31.00;68.20
40123;DHT22;25832;45.490;4.912;2023-09-08T11:32:24;31.10;66.90
40123;DHT22;25832;45.490;4.912;2023-09-08T11:34:50;31.20;66.00
40123;DHT22;25832;45.490;4.912;2023-09-08T11:37:17;31.30;67.50
40123;DHT22;25832;45.490;4.912;2023-09-08T11:39:45;31.40;65.90
40123;DHT22;25832;45.490;4.912;2023-09-08T11:42:15;31.40;66.60
40123;DHT22;25832;45.490;4.912;2023-09-08T11:44:41;31.50;67.10
40123;DHT22;25832;45.490;4.912;2023-09-08T11:47:09;31.50;67.20
40123;DHT22;25832;45.490;4.912;2023-09-08T11:49:41;31.60;66.40
40123;DHT22;25832;45.490;4.912;2023-09-08T11:52:07;31.70;66.80
40123;DHT22;25832;45.490;4.912;2023-09-08T11:54:36;31.80;67.20
40123;DHT22;25832;45.490;4.912;2023-09-08T11:57:04;31.90;67.10
40123;DHT22;25832;45.490;4.912;2023-09-08T11:59:34;31.90;65.30
40123;DHT22;25832;45.490;4.912;2023-09-08T12:02:00;31.90;65.20
40123;DHT22;25832;45.490;4.912;2023-09-08T12:04:26;32.00;66.50
40123;DHT22;25832;45.490;4.912;2023-09-08T12:06:53;32.00;66.00
40123;DHT22;25832;45.490;4.912;2023-09-08T12:09:21;32.00;65.50
40123;DHT22;25832;45.490;4.912;2023-09-08T12:11:47;32.10;65.90
40123;DHT22;25832;45.490;4.912;2023-09-08T12:14:14;32.00;66.40
40123;DHT22;25832;45.490;4.912;2023-09-08T12:16:40;32.00;66.60
40123;DHT22;25832;45.490;4.912;2023-09-08T12:19:07;32.10;66.90
40123;DHT22;25832;45.490;4.912;2023-09-08T12:21:55;32.10;66.00
40123;DHT22;25832;45.490;4.912;2023-09-08T12:24:48;32.30;66.80
40123;DHT22;25832;45.490;4.912;2023-09-08T12:27:15;32.40;67.10
40123;DHT22;25832;45.490;4.912;2023-09-08T12:29:51;32.50;67.30
40123;DHT22;25832;45.490;4.912;2023-09-08T12:32:17;32.50;66.70
40123;DHT22;25832;45.490;4.912;2023-09-08T12:34:43;32.40;65.70
40123;DHT22;25832;45.490;4.912;2023-09-08T12:37:10;32.50;66.70
40123;DHT22;25832;45.490;4.912;2023-09-08T12:39:38;32.40;64.60
40123;DHT22;25832;45.490;4.912;2023-09-08T12:42:04;32.30;65.50
40123;DHT22;25832;45.490;4.912;2023-09-08T12:44:29;32.30;65.40
40123;DHT22;25832;45.490;4.912;2023-09-08T12:46:55;32.50;65.80
40123;DHT22;25832;45.490;4.912;2023-09-08T12:49:21;32.50;65.10
40123;DHT22;25832;45.490;4.912;2023-09-08T12:51:46;32.50;65.40
40123;DHT22;25832;45.490;4.912;2023-09-08T12:54:12;32.50;64.90
40123;DHT22;25832;45.490;4.912;2023-09-08T12:56:37;32.60;64.60
40123;DHT22;25832;45.490;4.912;2023-09-08T12:59:03;32.70;65.00
40123;DHT22;25832;45.490;4.912;2023-09-08T13:01:29;32.70;64.30
40123;DHT22;25832;45.490;4.912;2023-09-08T13:03:54;32.70;65.00
40123;DHT22;25832;45.490;4.912;2023-09-08T13:06:20;32.70;64.80
40123;DHT22;25832;45.490;4.912;2023-09-08T13:08:46;32.70;64.40
40123;DHT22;25832;45.490;4.912;2023-09-08T13:11:11;32.50;63.10
40123;DHT22;25832;45.490;4.912;2023-09-08T13:13:37;32.40;63.80
40123;DHT22;25832;45.490;4.912;2023-09-08T13:16:03;32.40;64.20
40123;DHT22;25832;45.490;4.912;2023-09-08T13:18:28;32.50;65.20
40123;DHT22;25832;45.490;4.912;2023-09-08T13:21:00;32.60;63.30
40123;DHT22;25832;45.490;4.912;2023-09-08T13:23:26;32.60;63.80
40123;DHT22;25832;45.490;4.912;2023-09-08T13:25:51;32.70;63.10
40123;DHT22;25832;45.490;4.912;2023-09-08T13:28:18;32.80;62.80
40123;DHT22;25832;45.490;4.912;2023-09-08T13:30:44;32.80;62.00
40123;DHT22;25832;45.490;4.912;2023-09-08T13:33:09;32.80;62.50
40123;DHT22;25832;45.490;4.912;2023-09-08T13:35:35;32.80;63.30
40123;DHT22;25832;45.490;4.912;2023-09-08T13:38:01;32.80;63.50
40123;DHT22;25832;45.490;4.912;2023-09-08T13:40:28;33.00;63.30
40123;DHT22;25832;45.490;4.912;2023-09-08T13:42:54;33.00;63.30
40123;DHT22;25832;45.490;4.912;2023-09-08T13:45:20;33.00;63.50
40123;DHT22;25832;45.490;4.912;2023-09-08T13:47:45;32.80;63.40
40123;DHT22;25832;45.490;4.912;2023-09-08T13:50:11;32.80;64.20
40123;DHT22;25832;45.490;4.912;2023-09-08T13:52:37;32.80;63.50
40123;DHT22;25832;45.490;4.912;2023-09-08T13:55:05;32.80;63.70
40123;DHT22;25832;45.490;4.912;2023-09-08T13:57:31;32.60;63.50
40123;DHT22;25832;45.490;4.912;2023-09-08T13:59:57;32.60;63.70
40123;DHT22;25832;45.490;4.912;2023-09-08T14:02:22;32.60;63.20
40123;DHT22;25832;45.490;4.912;2023-09-08T14:04:48;32.70;63.20
40123;DHT22;25832;45.490;4.912;2023-09-08T14:07:14;32.70;63.10
40123;DHT22;25832;45.490;4.912;2023-09-08T14:09:39;32.70;63.20
40123;DHT22;25832;45.490;4.912;2023-09-08T14:12:05;32.70;63.20
40123;DHT22;25832;45.490;4.912;2023-09-08T14:14:31;32.50;62.30
40123;DHT22;25832;45.490;4.912;2023-09-08T14:16:56;32.40;63.10
40123;DHT22;25832;45.490;4.912;2023-09-08T14:19:22;32.40;63.10
40123;DHT22;25832;45.490;4.912;2023-09-08T14:21:48;32.50;64.50
40123;DHT22;25832;45.490;4.912;2023-09-08T14:24:13;32.50;64.50
40123;DHT22;25832;45.490;4.912;2023-09-08T14:26:39;32.70;64.00
40123;DHT22;25832;45.490;4.912;2023-09-08T14:29:05;32.90;63.70
40123;DHT22;25832;45.490;4.912;2023-09-08T14:31:30;33.00;63.60
40123;DHT22;25832;45.490;4.912;2023-09-08T14:33:57;33.10;62.90
40123;DHT22;25832;45.490;4.912;2023-09-08T14:36:23;33.20;63.10
40123;DHT22;25832;45.490;4.912;2023-09-08T14:38:49;33.20;63.00
40123;DHT22;25832;45.490;4.912;2023-09-08T14:41:15;33.20;63.00
40123;DHT22;25832;45.490;4.912;2023-09-08T14:43:41;33.10;62.60
40123;DHT22;25832;45.490;4.912;2023-09-08T14:46:06;32.90;62.50
40123;DHT22;25832;45.490;4.912;2023-09-08T14:48:32;32.70;63.40
40123;DHT22;25832;45.490;4.912;2023-09-08T14:50:58;32.60;63.60
40123;DHT22;25832;45.490;4.912;2023-09-08T14:53:24;32.60;63.60
40123;DHT22;25832;45.490;4.912;2023-09-08T14:55:49;32.50;63.80
40123;DHT22;25832;45.490;4.912;2023-09-08T14:58:16;32.50;64.40
40123;DHT22;25832;45.490;4.912;2023-09-08T15:00:41;32.50;64.30
40123;DHT22;25832;45.490;4.912;2023-09-08T15:03:08;32.70;64.80
40123;DHT22;25832;45.490;4.912;2023-09-08T15:05:34;32.80;64.40
40123;DHT22;25832;45.490;4.912;2023-09-08T15:08:00;32.90;64.40
40123;DHT22;25832;45.490;4.912;2023-09-08T15:10:26;33.10;63.20
40123;DHT22;25832;45.490;4.912;2023-09-08T15:12:51;33.20;63.30
40123;DHT22;25832;45.490;4.912;2023-09-08T15:15:17;33.10;63.70
40123;DHT22;25832;45.490;4.912;2023-09-08T15:17:50;33.10;62.40
40123;DHT22;25832;45.490;4.912;2023-09-08T15:20:16;32.90;63.00
40123;DHT22;25832;45.490;4.912;2023-09-08T15:22:41;32.80;63.40
40123;DHT22;25832;45.490;4.912;2023-09-08T15:25:07;32.70;63.70
40123;DHT22;25832;45.490;4.912;2023-09-08T15:27:33;32.70;63.50
40123;DHT22;25832;45.490;4.912;2023-09-08T15:29:58;32.60;63.40
40123;DHT22;25832;45.490;4.912;2023-09-08T15:32:24;32.50;63.20
40123;DHT22;25832;45.490;4.912;2023-09-08T15:34:50;32.40;63.20
40123;DHT22;25832;45.490;4.912;2023-09-08T15:37:17;32.40;62.70